sensor_id;sensor_type;location;lat;lon;timestamp;P1;durP1;ratioP1;P2;durP2;ratioP2
29422;SDS011;16399;51.686;8.684;2022-07-29T00:02:31;3.10;;;1.32;;
29422;SDS011;16399;51.686;8.684;2022-07-29T00:05:33;4.45;;;1.47;;
29422;SDS011;16399;51.686;8.684;2022-07-29T00:08:36;4.17;;;1.37;;
29422;SDS011;16399;51.686;8.684;2022-07-29T00:11:38;4.70;;;1.05;;
29422;SDS011;16399;51.686;8.684;2022-07-29T00:14:40;7.72;;;1.40;;
29422;SDS011;16399;51.686;8.684;2022-07-29T00:17:42;6.28;;;1.15;;
29422;SDS011;16399;51.686;8.684;2022-07-29T00:20:45;3.35;;;1.32;;
29422;SDS011;16399;51.686;8.684;2022-07-29T00:23:47;4.75;;;1.32;;
29422;SDS011;16399;51.686;8.684;2022-07-29T00:26:49;4.17;;;1.07;;
29422;SDS011;16399;51.686;8.684;2022-07-29T00:29:51;8.85;;;2.15;;
29422;SDS011;16399;51.686;8.684;2022-07-29T00:32:54;3.10;;;1.20;;
29422;SDS011;16399;51.686;8.684;2022-07-29T00:35:56;5.87;;;1.20;;
29422;SDS011;16399;51.686;8.684;2022-07-29T00:38:58;3.05;;;0.90;;
29422;SDS011;16399;51.686;8.684;2022-07-29T00:42:06;4.28;;;1.10;;
29422;SDS011;16399;51.686;8.684;2022-07-29T00:45:05;4.12;;;1.00;;
29422;SDS011;16399;51.686;8.684;2022-07-29T00:48:07;4.03;;;1.30;;
29422;SDS011;16399;51.686;8.684;2022-07-29T00:51:10;3.87;;;1.02;;
29422;SDS011;16399;51.686;8.684;2022-07-29T00:54:13;5.37;;;1.30;;
29422;SDS011;16399;51.686;8.684;2022-07-29T00:57:16;4.10;;;1.05;;
29422;SDS011;16399;51.686;8.684;2022-07-29T01:00:20;6.53;;;1.40;;
29422;SDS011;16399;51.686;8.684;2022-07-29T01:03:23;4.30;;;1.00;;
29422;SDS011;16399;51.686;8.684;2022-07-29T01:06:26;4.55;;;1.27;;
29422;SDS011;16399;51.686;8.684;2022-07-29T01:09:28;2.72;;;0.90;;
29422;SDS011;16399;51.686;8.684;2022-07-29T01:12:33;3.92;;;1.07;;
29422;SDS011;16399;51.686;8.684;2022-07-29T01:15:42;5.03;;;1.05;;
29422;SDS011;16399;51.686;8.684;2022-07-29T01:18:46;4.10;;;1.15;;
29422;SDS011;16399;51.686;8.684;2022-07-29T01:21:51;3.52;;;1.02;;
29422;SDS011;16399;51.686;8.684;2022-07-29T01:25:09;10.13;;;1.50;;
29422;SDS011;16399;51.686;8.684;2022-07-29T01:31:56;5.35;;;1.40;;
29422;SDS011;16399;51.686;8.684;2022-07-29T01:35:06;5.72;;;1.20;;
29422;SDS011;16399;51.686;8.684;2022-07-29T01:38:22;3.52;;;0.98;;
29422;SDS011;16399;51.686;8.684;2022-07-29T01:41:27;2.87;;;1.15;;
29422;SDS011;16399;51.686;8.684;2022-07-29T01:44:45;5.85;;;1.25;;
29422;SDS011;16399;51.686;8.684;2022-07-29T01:48:00;7.90;;;1.20;;
29422;SDS011;16399;51.686;8.684;2022-07-29T01:51:12;4.22;;;1.22;;
29422;SDS011;16399;51.686;8.684;2022-07-29T01:54:20;3.35;;;0.95;;
29422;SDS011;16399;51.686;8.684;2022-07-29T01:57:29;6.83;;;1.17;;
29422;SDS011;16399;51.686;8.684;2022-07-29T02:00:34;3.70;;;1.05;;
29422;SDS011;16399;51.686;8.684;2022-07-29T02:03:38;5.87;;;1.42;;
29422;SDS011;16399;51.686;8.684;2022-07-29T02:06:44;5.05;;;1.22;;
29422;SDS011;16399;51.686;8.684;2022-07-29T02:09:49;6.75;;;1.82;;
29422;SDS011;16399;51.686;8.684;2022-07-29T02:12:54;8.53;;;1.35;;
29422;SDS011;16399;51.686;8.684;2022-07-29T02:15:58;4.03;;;1.10;;
29422;SDS011;16399;51.686;8.684;2022-07-29T02:19:02;3.80;;;1.10;;
29422;SDS011;16399;51.686;8.684;2022-07-29T02:22:16;3.45;;;1.20;;
29422;SDS011;16399;51.686;8.684;2022-07-29T02:25:20;6.95;;;0.93;;
29422;SDS011;16399;51.686;8.684;2022-07-29T02:28:25;4.53;;;1.07;;
29422;SDS011;16399;51.686;8.684;2022-07-29T02:31:30;6.15;;;1.10;;
29422;SDS011;16399;51.686;8.684;2022-07-29T02:34:34;4.20;;;1.22;;
29422;SDS011;16399;51.686;8.684;2022-07-29T02:37:39;4.92;;;1.55;;
29422;SDS011;16399;51.686;8.684;2022-07-29T02:40:43;4.58;;;1.60;;
29422;SDS011;16399;51.686;8.684;2022-07-29T02:43:47;6.42;;;1.15;;
29422;SDS011;16399;51.686;8.684;2022-07-29T02:46:52;4.42;;;1.00;;
29422;SDS011;16399;51.686;8.684;2022-07-29T02:50:00;4.08;;;1.22;;
29422;SDS011;16399;51.686;8.684;2022-07-29T02:53:05;6.37;;;0.93;;
29422;SDS011;16399;51.686;8.684;2022-07-29T02:56:10;4.15;;;1.32;;
29422;SDS011;16399;51.686;8.684;2022-07-29T02:59:15;5.25;;;1.00;;
29422;SDS011;16399;51.686;8.684;2022-07-29T03:02:21;5.08;;;1.37;;
29422;SDS011;16399;51.686;8.684;2022-07-29T03:05:23;3.00;;;1.20;;
29422;SDS011;16399;51.686;8.684;2022-07-29T03:08:27;2.25;;;1.00;;
29422;SDS011;16399;51.686;8.684;2022-07-29T03:11:30;5.55;;;1.80;;
29422;SDS011;16399;51.686;8.684;2022-07-29T03:14:34;3.05;;;1.20;;
29422;SDS011;16399;51.686;8.684;2022-07-29T03:17:37;4.45;;;1.10;;
29422;SDS011;16399;51.686;8.684;2022-07-29T03:20:40;3.85;;;1.00;;
29422;SDS011;16399;51.686;8.684;2022-07-29T03:23:43;3.37;;;0.93;;
29422;SDS011;16399;51.686;8.684;2022-07-29T03:26:46;4.92;;;0.98;;
29422;SDS011;16399;51.686;8.684;2022-07-29T03:29:48;3.90;;;1.32;;
29422;SDS011;16399;51.686;8.684;2022-07-29T03:32:52;5.03;;;1.25;;
29422;SDS011;16399;51.686;8.684;2022-07-29T03:35:54;3.40;;;1.07;;
29422;SDS011;16399;51.686;8.684;2022-07-29T03:38:57;5.50;;;1.50;;
29422;SDS011;16399;51.686;8.684;2022-07-29T03:42:00;4.42;;;1.47;;
29422;SDS011;16399;51.686;8.684;2022-07-29T03:45:07;3.60;;;1.03;;
29422;SDS011;16399;51.686;8.684;2022-07-29T03:48:12;7.35;;;1.67;;
29422;SDS011;16399;51.686;8.684;2022-07-29T03:51:17;5.03;;;1.20;;
29422;SDS011;16399;51.686;8.684;2022-07-29T03:54:19;4.10;;;1.07;;
29422;SDS011;16399;51.686;8.684;2022-07-29T03:57:23;4.70;;;1.25;;
29422;SDS011;16399;51.686;8.684;2022-07-29T04:00:27;4.20;;;1.00;;
29422;SDS011;16399;51.686;8.684;2022-07-29T04:03:30;3.37;;;1.30;;
29422;SDS011;16399;51.686;8.684;2022-07-29T04:06:39;2.15;;;0.85;;
29422;SDS011;16399;51.686;8.684;2022-07-29T04:09:43;5.22;;;1.10;;
29422;SDS011;16399;51.686;8.684;2022-07-29T04:12:45;4.20;;;1.10;;
29422;SDS011;16399;51.686;8.684;2022-07-29T04:15:48;7.20;;;1.25;;
29422;SDS011;16399;51.686;8.684;2022-07-29T04:18:50;5.40;;;1.20;;
29422;SDS011;16399;51.686;8.684;2022-07-29T04:21:52;6.65;;;1.30;;
29422;SDS011;16399;51.686;8.684;2022-07-29T04:24:55;8.53;;;1.60;;
29422;SDS011;16399;51.686;8.684;2022-07-29T04:27:57;4.45;;;1.00;;
29422;SDS011;16399;51.686;8.684;2022-07-29T04:31:02;2.92;;;1.20;;
29422;SDS011;16399;51.686;8.684;2022-07-29T04:34:04;5.03;;;1.10;;
29422;SDS011;16399;51.686;8.684;2022-07-29T04:37:07;5.75;;;1.40;;
29422;SDS011;16399;51.686;8.684;2022-07-29T04:40:09;4.70;;;1.02;;
29422;SDS011;16399;51.686;8.684;2022-07-29T04:43:12;3.87;;;0.98;;
29422;SDS011;16399;51.686;8.684;2022-07-29T04:46:16;4.67;;;1.20;;
29422;SDS011;16399;51.686;8.684;2022-07-29T04:49:18;4.72;;;1.20;;
29422;SDS011;16399;51.686;8.684;2022-07-29T04:52:20;3.22;;;1.00;;
29422;SDS011;16399;51.686;8.684;2022-07-29T04:55:23;5.20;;;1.12;;
29422;SDS011;16399;51.686;8.684;2022-07-29T04:58:25;6.17;;;1.42;;
29422;SDS011;16399;51.686;8.684;2022-07-29T05:01:28;6.25;;;1.47;;
29422;SDS011;16399;51.686;8.684;2022-07-29T05:04:30;3.45;;;1.27;;
29422;SDS011;16399;51.686;8.684;2022-07-29T05:07:32;4.67;;;1.40;;
29422;SDS011;16399;51.686;8.684;2022-07-29T05:10:35;5.60;;;1.00;;
29422;SDS011;16399;51.686;8.684;2022-07-29T05:13:38;8.10;;;1.42;;
29422;SDS011;16399;51.686;8.684;2022-07-29T05:16:41;4.45;;;1.07;;
29422;SDS011;16399;51.686;8.684;2022-07-29T05:19:43;6.35;;;1.22;;
29422;SDS011;16399;51.686;8.684;2022-07-29T05:22:46;4.67;;;1.30;;
29422;SDS011;16399;51.686;8.684;2022-07-29T05:25:49;2.67;;;1.10;;
29422;SDS011;16399;51.686;8.684;2022-07-29T05:28:51;2.33;;;0.95;;
29422;SDS011;16399;51.686;8.684;2022-07-29T05:31:55;3.10;;;1.17;;
29422;SDS011;16399;51.686;8.684;2022-07-29T05:34:57;5.28;;;1.12;;
29422;SDS011;16399;51.686;8.684;2022-07-29T05:37:59;5.35;;;1.30;;
29422;SDS011;16399;51.686;8.684;2022-07-29T05:41:02;5.45;;;1.50;;
29422;SDS011;16399;51.686;8.684;2022-07-29T05:44:04;4.90;;;1.35;;
29422;SDS011;16399;51.686;8.684;2022-07-29T05:47:07;4.47;;;1.20;;
29422;SDS011;16399;51.686;8.684;2022-07-29T05:50:09;5.70;;;1.70;;
29422;SDS011;16399;51.686;8.684;2022-07-29T05:53:11;5.03;;;1.12;;
29422;SDS011;16399;51.686;8.684;2022-07-29T05:56:14;3.83;;;1.20;;
29422;SDS011;16399;51.686;8.684;2022-07-29T05:59:16;5.42;;;1.20;;
29422;SDS011;16399;51.686;8.684;2022-07-29T06:02:18;4.30;;;1.20;;
29422;SDS011;16399;51.686;8.684;2022-07-29T06:05:20;3.22;;;1.40;;
29422;SDS011;16399;51.686;8.684;2022-07-29T06:08:23;3.92;;;1.05;;
29422;SDS011;16399;51.686;8.684;2022-07-29T06:11:25;4.28;;;1.52;;
29422;SDS011;16399;51.686;8.684;2022-07-29T06:14:28;4.83;;;1.35;;
29422;SDS011;16399;51.686;8.684;2022-07-29T06:17:30;4.17;;;1.17;;
29422;SDS011;16399;51.686;8.684;2022-07-29T06:20:32;6.58;;;1.30;;
29422;SDS011;16399;51.686;8.684;2022-07-29T06:23:35;4.12;;;1.20;;
29422;SDS011;16399;51.686;8.684;2022-07-29T06:26:39;6.20;;;1.27;;
29422;SDS011;16399;51.686;8.684;2022-07-29T06:29:42;7.85;;;1.20;;
29422;SDS011;16399;51.686;8.684;2022-07-29T06:32:44;3.90;;;1.02;;
29422;SDS011;16399;51.686;8.684;2022-07-29T06:35:47;4.00;;;1.20;;
29422;SDS011;16399;51.686;8.684;2022-07-29T06:38:49;3.62;;;1.00;;
29422;SDS011;16399;51.686;8.684;2022-07-29T06:41:51;3.47;;;1.00;;
29422;SDS011;16399;51.686;8.684;2022-07-29T06:44:54;4.33;;;1.20;;
29422;SDS011;16399;51.686;8.684;2022-07-29T06:47:56;6.22;;;1.62;;
29422;SDS011;16399;51.686;8.684;2022-07-29T06:50:59;2.70;;;0.93;;
29422;SDS011;16399;51.686;8.684;2022-07-29T06:54:02;4.10;;;1.25;;
29422;SDS011;16399;51.686;8.684;2022-07-29T06:57:06;2.10;;;1.07;;
29422;SDS011;16399;51.686;8.684;2022-07-29T07:00:10;4.25;;;1.12;;
29422;SDS011;16399;51.686;8.684;2022-07-29T07:03:15;3.80;;;1.00;;
29422;SDS011;16399;51.686;8.684;2022-07-29T07:06:18;2.98;;;1.00;;
29422;SDS011;16399;51.686;8.684;2022-07-29T07:09:20;4.33;;;1.30;;
29422;SDS011;16399;51.686;8.684;2022-07-29T07:12:23;3.95;;;1.30;;
29422;SDS011;16399;51.686;8.684;2022-07-29T07:15:26;3.67;;;1.47;;
29422;SDS011;16399;51.686;8.684;2022-07-29T07:18:28;5.60;;;1.32;;
29422;SDS011;16399;51.686;8.684;2022-07-29T07:21:32;4.53;;;1.30;;
29422;SDS011;16399;51.686;8.684;2022-07-29T07:24:34;4.20;;;1.25;;
29422;SDS011;16399;51.686;8.684;2022-07-29T07:27:37;2.67;;;1.20;;
29422;SDS011;16399;51.686;8.684;2022-07-29T07:30:39;2.22;;;1.00;;
29422;SDS011;16399;51.686;8.684;2022-07-29T07:33:41;4.87;;;1.32;;
29422;SDS011;16399;51.686;8.684;2022-07-29T07:36:43;3.87;;;1.30;;
29422;SDS011;16399;51.686;8.684;2022-07-29T07:39:46;3.05;;;1.17;;
29422;SDS011;16399;51.686;8.684;2022-07-29T07:42:48;5.45;;;1.30;;
29422;SDS011;16399;51.686;8.684;2022-07-29T07:45:50;5.25;;;1.10;;
29422;SDS011;16399;51.686;8.684;2022-07-29T07:48:53;3.15;;;1.35;;
29422;SDS011;16399;51.686;8.684;2022-07-29T07:51:55;3.40;;;1.30;;
29422;SDS011;16399;51.686;8.684;2022-07-29T07:54:57;4.00;;;1.40;;
29422;SDS011;16399;51.686;8.684;2022-07-29T07:58:00;2.05;;;1.07;;
29422;SDS011;16399;51.686;8.684;2022-07-29T08:01:02;6.60;;;1.40;;
29422;SDS011;16399;51.686;8.684;2022-07-29T08:04:05;5.72;;;1.40;;
29422;SDS011;16399;51.686;8.684;2022-07-29T08:07:08;3.98;;;1.42;;
29422;SDS011;16399;51.686;8.684;2022-07-29T08:10:10;3.33;;;1.30;;
29422;SDS011;16399;51.686;8.684;2022-07-29T08:13:12;6.03;;;1.47;;
29422;SDS011;16399;51.686;8.684;2022-07-29T08:16:15;4.78;;;1.10;;
29422;SDS011;16399;51.686;8.684;2022-07-29T08:19:17;4.90;;;1.80;;
29422;SDS011;16399;51.686;8.684;2022-07-29T08:22:19;7.55;;;1.20;;
29422;SDS011;16399;51.686;8.684;2022-07-29T08:25:22;4.75;;;1.20;;
29422;SDS011;16399;51.686;8.684;2022-07-29T08:28:24;5.60;;;1.52;;
29422;SDS011;16399;51.686;8.684;2022-07-29T08:31:26;6.62;;;1.30;;
29422;SDS011;16399;51.686;8.684;2022-07-29T08:34:28;3.58;;;1.30;;
29422;SDS011;16399;51.686;8.684;2022-07-29T08:37:31;5.28;;;1.22;;
29422;SDS011;16399;51.686;8.684;2022-07-29T08:40:33;3.12;;;1.40;;
29422;SDS011;16399;51.686;8.684;2022-07-29T08:43:36;5.12;;;1.07;;
29422;SDS011;16399;51.686;8.684;2022-07-29T08:46:38;4.60;;;1.45;;
29422;SDS011;16399;51.686;8.684;2022-07-29T08:49:40;6.97;;;1.35;;
29422;SDS011;16399;51.686;8.684;2022-07-29T08:52:46;4.47;;;1.30;;
29422;SDS011;16399;51.686;8.684;2022-07-29T08:55:50;3.42;;;1.35;;
29422;SDS011;16399;51.686;8.684;2022-07-29T08:58:54;7.87;;;1.67;;
29422;SDS011;16399;51.686;8.684;2022-07-29T09:01:58;3.00;;;1.20;;
29422;SDS011;16399;51.686;8.684;2022-07-29T09:05:01;9.00;;;1.32;;
29422;SDS011;16399;51.686;8.684;2022-07-29T09:08:05;4.37;;;1.50;;
29422;SDS011;16399;51.686;8.684;2022-07-29T09:11:07;4.03;;;1.42;;
29422;SDS011;16399;51.686;8.684;2022-07-29T09:14:12;6.60;;;1.40;;
29422;SDS011;16399;51.686;8.684;2022-07-29T09:17:15;5.65;;;1.17;;
29422;SDS011;16399;51.686;8.684;2022-07-29T09:20:19;4.20;;;1.20;;
29422;SDS011;16399;51.686;8.684;2022-07-29T09:23:23;10.90;;;1.32;;
29422;SDS011;16399;51.686;8.684;2022-07-29T09:26:29;6.78;;;1.67;;
29422;SDS011;16399;51.686;8.684;2022-07-29T09:29:32;5.92;;;1.20;;
29422;SDS011;16399;51.686;8.684;2022-07-29T09:32:53;5.00;;;1.22;;
29422;SDS011;16399;51.686;8.684;2022-07-29T09:36:02;8.93;;;1.98;;
29422;SDS011;16399;51.686;8.684;2022-07-29T09:39:09;7.65;;;1.70;;
29422;SDS011;16399;51.686;8.684;2022-07-29T09:42:12;3.47;;;1.20;;
29422;SDS011;16399;51.686;8.684;2022-07-29T09:45:26;7.17;;;1.75;;
29422;SDS011;16399;51.686;8.684;2022-07-29T09:48:28;8.63;;;1.50;;
29422;SDS011;16399;51.686;8.684;2022-07-29T09:51:31;4.40;;;1.52;;
29422;SDS011;16399;51.686;8.684;2022-07-29T09:54:34;5.70;;;1.30;;
29422;SDS011;16399;51.686;8.684;2022-07-29T09:57:39;7.58;;;1.40;;
29422;SDS011;16399;51.686;8.684;2022-07-29T10:00:42;5.70;;;1.40;;
29422;SDS011;16399;51.686;8.684;2022-07-29T10:03:52;3.55;;;1.37;;
29422;SDS011;16399;51.686;8.684;2022-07-29T10:07:01;5.17;;;1.70;;
29422;SDS011;16399;51.686;8.684;2022-07-29T10:10:05;4.20;;;1.47;;
29422;SDS011;16399;51.686;8.684;2022-07-29T10:13:09;3.10;;;1.25;;
29422;SDS011;16399;51.686;8.684;2022-07-29T10:16:16;8.35;;;1.35;;
29422;SDS011;16399;51.686;8.684;2022-07-29T10:19:18;5.60;;;1.30;;
29422;SDS011;16399;51.686;8.684;2022-07-29T10:22:21;3.87;;;1.35;;
29422;SDS011;16399;51.686;8.684;2022-07-29T10:25:24;6.08;;;1.50;;
29422;SDS011;16399;51.686;8.684;2022-07-29T10:28:27;9.10;;;1.42;;
29422;SDS011;16399;51.686;8.684;2022-07-29T10:31:42;3.97;;;1.37;;
29422;SDS011;16399;51.686;8.684;2022-07-29T10:38:39;3.42;;;1.40;;
29422;SDS011;16399;51.686;8.684;2022-07-29T10:45:10;5.60;;;1.62;;
29422;SDS011;16399;51.686;8.684;2022-07-29T10:48:13;5.00;;;1.52;;
29422;SDS011;16399;51.686;8.684;2022-07-29T10:51:15;3.70;;;1.47;;
29422;SDS011;16399;51.686;8.684;2022-07-29T10:54:19;4.17;;;1.12;;
29422;SDS011;16399;51.686;8.684;2022-07-29T10:57:39;3.27;;;1.50;;
29422;SDS011;16399;51.686;8.684;2022-07-29T11:00:52;3.77;;;1.30;;
29422;SDS011;16399;51.686;8.684;2022-07-29T11:03:55;6.30;;;1.60;;
29422;SDS011;16399;51.686;8.684;2022-07-29T11:10:19;4.75;;;1.70;;
29422;SDS011;16399;51.686;8.684;2022-07-29T11:17:06;5.78;;;1.65;;
29422;SDS011;16399;51.686;8.684;2022-07-29T11:20:46;4.03;;;1.60;;
29422;SDS011;16399;51.686;8.684;2022-07-29T11:23:28;3.90;;;1.60;;
29422;SDS011;16399;51.686;8.684;2022-07-29T11:29:35;2.62;;;1.20;;
29422;SDS011;16399;51.686;8.684;2022-07-29T11:32:51;3.67;;;1.65;;
29422;SDS011;16399;51.686;8.684;2022-07-29T11:36:13;3.47;;;1.60;;
29422;SDS011;16399;51.686;8.684;2022-07-29T11:39:26;6.30;;;1.45;;
29422;SDS011;16399;51.686;8.684;2022-07-29T11:45:44;4.60;;;1.70;;
29422;SDS011;16399;51.686;8.684;2022-07-29T11:48:47;5.90;;;1.45;;
29422;SDS011;16399;51.686;8.684;2022-07-29T11:51:54;4.40;;;1.40;;
29422;SDS011;16399;51.686;8.684;2022-07-29T11:54:56;6.37;;;2.17;;
29422;SDS011;16399;51.686;8.684;2022-07-29T11:57:59;2.47;;;1.40;;
29422;SDS011;16399;51.686;8.684;2022-07-29T12:01:02;7.62;;;1.65;;
29422;SDS011;16399;51.686;8.684;2022-07-29T12:04:05;7.13;;;1.53;;
29422;SDS011;16399;51.686;8.684;2022-07-29T12:07:08;4.22;;;1.82;;
29422;SDS011;16399;51.686;8.684;2022-07-29T12:10:10;4.10;;;1.45;;
29422;SDS011;16399;51.686;8.684;2022-07-29T12:13:13;3.00;;;1.35;;
29422;SDS011;16399;51.686;8.684;2022-07-29T12:16:16;4.08;;;1.67;;
29422;SDS011;16399;51.686;8.684;2022-07-29T12:19:20;3.13;;;1.40;;
29422;SDS011;16399;51.686;8.684;2022-07-29T12:22:26;5.33;;;1.62;;
29422;SDS011;16399;51.686;8.684;2022-07-29T12:25:32;5.22;;;1.70;;
29422;SDS011;16399;51.686;8.684;2022-07-29T12:28:38;4.58;;;1.57;;
29422;SDS011;16399;51.686;8.684;2022-07-29T12:31:40;3.87;;;1.82;;
29422;SDS011;16399;51.686;8.684;2022-07-29T12:34:43;4.00;;;1.70;;
29422;SDS011;16399;51.686;8.684;2022-07-29T12:37:46;6.70;;;1.90;;
29422;SDS011;16399;51.686;8.684;2022-07-29T12:40:51;4.40;;;1.60;;
29422;SDS011;16399;51.686;8.684;2022-07-29T12:43:54;4.25;;;1.85;;
29422;SDS011;16399;51.686;8.684;2022-07-29T12:47:03;3.72;;;1.60;;
29422;SDS011;16399;51.686;8.684;2022-07-29T12:50:09;6.35;;;1.50;;
29422;SDS011;16399;51.686;8.684;2022-07-29T12:53:15;4.78;;;1.50;;
29422;SDS011;16399;51.686;8.684;2022-07-29T12:56:17;2.75;;;1.32;;
29422;SDS011;16399;51.686;8.684;2022-07-29T12:59:20;6.08;;;1.80;;
29422;SDS011;16399;51.686;8.684;2022-07-29T13:02:23;4.17;;;1.50;;
29422;SDS011;16399;51.686;8.684;2022-07-29T13:05:48;3.65;;;1.40;;
29422;SDS011;16399;51.686;8.684;2022-07-29T13:08:57;3.30;;;1.60;;
29422;SDS011;16399;51.686;8.684;2022-07-29T13:12:05;3.80;;;1.70;;
29422;SDS011;16399;51.686;8.684;2022-07-29T13:15:14;6.42;;;1.82;;
29422;SDS011;16399;51.686;8.684;2022-07-29T13:18:29;3.72;;;1.40;;
29422;SDS011;16399;51.686;8.684;2022-07-29T13:21:34;6.17;;;2.20;;
29422;SDS011;16399;51.686;8.684;2022-07-29T13:24:52;6.80;;;1.55;;
29422;SDS011;16399;51.686;8.684;2022-07-29T13:27:56;4.80;;;1.85;;
29422;SDS011;16399;51.686;8.684;2022-07-29T13:30:59;5.97;;;1.80;;
29422;SDS011;16399;51.686;8.684;2022-07-29T13:34:02;3.98;;;1.57;;
29422;SDS011;16399;51.686;8.684;2022-07-29T13:37:04;4.87;;;1.92;;
29422;SDS011;16399;51.686;8.684;2022-07-29T13:40:07;5.20;;;1.50;;
29422;SDS011;16399;51.686;8.684;2022-07-29T13:43:10;4.92;;;1.80;;
29422;SDS011;16399;51.686;8.684;2022-07-29T13:46:13;5.00;;;1.65;;
29422;SDS011;16399;51.686;8.684;2022-07-29T13:49:16;6.10;;;2.00;;
29422;SDS011;16399;51.686;8.684;2022-07-29T13:52:18;3.92;;;1.45;;
29422;SDS011;16399;51.686;8.684;2022-07-29T13:55:21;5.00;;;1.70;;
29422;SDS011;16399;51.686;8.684;2022-07-29T13:58:23;5.47;;;1.67;;
29422;SDS011;16399;51.686;8.684;2022-07-29T14:01:26;6.08;;;1.72;;
29422;SDS011;16399;51.686;8.684;2022-07-29T14:04:30;4.83;;;1.60;;
29422;SDS011;16399;51.686;8.684;2022-07-29T14:07:33;6.45;;;1.62;;
29422;SDS011;16399;51.686;8.684;2022-07-29T14:10:35;4.60;;;1.50;;
29422;SDS011;16399;51.686;8.684;2022-07-29T14:13:37;5.60;;;1.62;;
29422;SDS011;16399;51.686;8.684;2022-07-29T14:16:39;7.20;;;1.60;;
29422;SDS011;16399;51.686;8.684;2022-07-29T14:19:42;3.83;;;1.67;;
29422;SDS011;16399;51.686;8.684;2022-07-29T14:22:44;6.47;;;1.70;;
29422;SDS011;16399;51.686;8.684;2022-07-29T14:25:48;4.80;;;1.85;;
29422;SDS011;16399;51.686;8.684;2022-07-29T14:28:50;4.50;;;1.62;;
29422;SDS011;16399;51.686;8.684;2022-07-29T14:31:53;6.00;;;1.85;;
29422;SDS011;16399;51.686;8.684;2022-07-29T14:34:55;3.72;;;1.72;;
29422;SDS011;16399;51.686;8.684;2022-07-29T14:37:57;5.60;;;1.62;;
29422;SDS011;16399;51.686;8.684;2022-07-29T14:41:00;3.83;;;1.40;;
29422;SDS011;16399;51.686;8.684;2022-07-29T14:44:02;4.40;;;2.22;;
29422;SDS011;16399;51.686;8.684;2022-07-29T14:47:05;4.17;;;1.72;;
29422;SDS011;16399;51.686;8.684;2022-07-29T14:50:08;3.62;;;1.50;;
29422;SDS011;16399;51.686;8.684;2022-07-29T14:53:11;6.80;;;1.90;;
29422;SDS011;16399;51.686;8.684;2022-07-29T14:56:13;7.28;;;1.90;;
29422;SDS011;16399;51.686;8.684;2022-07-29T14:59:16;4.62;;;1.90;;
29422;SDS011;16399;51.686;8.684;2022-07-29T15:02:19;3.83;;;1.63;;
29422;SDS011;16399;51.686;8.684;2022-07-29T15:05:21;4.85;;;1.80;;
29422;SDS011;16399;51.686;8.684;2022-07-29T15:08:24;3.92;;;1.87;;
29422;SDS011;16399;51.686;8.684;2022-07-29T15:11:28;5.03;;;1.90;;
29422;SDS011;16399;51.686;8.684;2022-07-29T15:14:30;5.20;;;1.90;;
29422;SDS011;16399;51.686;8.684;2022-07-29T15:17:32;6.70;;;1.75;;
29422;SDS011;16399;51.686;8.684;2022-07-29T15:20:34;4.37;;;1.80;;
29422;SDS011;16399;51.686;8.684;2022-07-29T15:23:37;8.08;;;2.17;;
29422;SDS011;16399;51.686;8.684;2022-07-29T15:26:39;5.10;;;1.57;;
29422;SDS011;16399;51.686;8.684;2022-07-29T15:29:43;4.87;;;1.75;;
29422;SDS011;16399;51.686;8.684;2022-07-29T15:32:45;5.78;;;1.90;;
29422;SDS011;16399;51.686;8.684;2022-07-29T15:35:48;5.62;;;2.10;;
29422;SDS011;16399;51.686;8.684;2022-07-29T15:38:51;4.87;;;2.08;;
29422;SDS011;16399;51.686;8.684;2022-07-29T15:41:54;7.55;;;2.47;;
29422;SDS011;16399;51.686;8.684;2022-07-29T15:44:56;7.45;;;2.35;;
29422;SDS011;16399;51.686;8.684;2022-07-29T15:47:59;8.43;;;2.12;;
29422;SDS011;16399;51.686;8.684;2022-07-29T15:51:01;7.83;;;1.90;;
29422;SDS011;16399;51.686;8.684;2022-07-29T15:54:03;4.67;;;1.90;;
29422;SDS011;16399;51.686;8.684;2022-07-29T15:57:06;5.40;;;2.12;;
29422;SDS011;16399;51.686;8.684;2022-07-29T16:00:08;7.95;;;2.12;;
29422;SDS011;16399;51.686;8.684;2022-07-29T16:03:11;5.10;;;2.17;;
29422;SDS011;16399;51.686;8.684;2022-07-29T16:06:14;6.17;;;2.05;;
29422;SDS011;16399;51.686;8.684;2022-07-29T16:09:16;6.42;;;1.90;;
29422;SDS011;16399;51.686;8.684;2022-07-29T16:12:19;7.75;;;1.82;;
29422;SDS011;16399;51.686;8.684;2022-07-29T16:15:22;5.25;;;2.20;;
29422;SDS011;16399;51.686;8.684;2022-07-29T16:18:24;7.10;;;2.20;;
29422;SDS011;16399;51.686;8.684;2022-07-29T16:21:26;6.42;;;2.45;;
29422;SDS011;16399;51.686;8.684;2022-07-29T16:24:30;6.47;;;1.80;;
29422;SDS011;16399;51.686;8.684;2022-07-29T16:27:33;4.78;;;2.08;;
29422;SDS011;16399;51.686;8.684;2022-07-29T16:30:35;8.45;;;1.90;;
29422;SDS011;16399;51.686;8.684;2022-07-29T16:33:37;9.05;;;2.27;;
29422;SDS011;16399;51.686;8.684;2022-07-29T16:36:40;5.22;;;1.98;;
29422;SDS011;16399;51.686;8.684;2022-07-29T16:39:42;12.98;;;2.08;;
29422;SDS011;16399;51.686;8.684;2022-07-29T16:42:44;8.60;;;2.12;;
29422;SDS011;16399;51.686;8.684;2022-07-29T16:45:47;4.90;;;1.70;;
29422;SDS011;16399;51.686;8.684;2022-07-29T16:48:49;6.10;;;1.90;;
29422;SDS011;16399;51.686;8.684;2022-07-29T16:51:51;4.80;;;2.02;;
29422;SDS011;16399;51.686;8.684;2022-07-29T16:54:54;5.10;;;2.45;;
29422;SDS011;16399;51.686;8.684;2022-07-29T16:57:56;5.45;;;2.10;;
29422;SDS011;16399;51.686;8.684;2022-07-29T17:00:58;8.60;;;2.10;;
29422;SDS011;16399;51.686;8.684;2022-07-29T17:04:01;4.40;;;1.87;;
29422;SDS011;16399;51.686;8.684;2022-07-29T17:07:06;5.55;;;1.92;;
29422;SDS011;16399;51.686;8.684;2022-07-29T17:10:08;9.28;;;1.98;;
29422;SDS011;16399;51.686;8.684;2022-07-29T17:13:11;3.75;;;1.80;;
29422;SDS011;16399;51.686;8.684;2022-07-29T17:16:13;7.58;;;2.10;;
29422;SDS011;16399;51.686;8.684;2022-07-29T17:19:16;5.45;;;1.95;;
29422;SDS011;16399;51.686;8.684;2022-07-29T17:22:18;7.12;;;2.17;;
29422;SDS011;16399;51.686;8.684;2022-07-29T17:25:21;5.25;;;2.25;;
29422;SDS011;16399;51.686;8.684;2022-07-29T17:28:23;6.80;;;1.90;;
29422;SDS011;16399;51.686;8.684;2022-07-29T17:31:25;12.53;;;2.17;;
29422;SDS011;16399;51.686;8.684;2022-07-29T17:34:28;10.70;;;2.37;;
29422;SDS011;16399;51.686;8.684;2022-07-29T17:37:30;6.10;;;2.10;;
29422;SDS011;16399;51.686;8.684;2022-07-29T17:40:32;6.65;;;2.52;;
29422;SDS011;16399;51.686;8.684;2022-07-29T17:43:34;9.10;;;2.15;;
29422;SDS011;16399;51.686;8.684;2022-07-29T17:46:37;7.45;;;2.33;;
29422;SDS011;16399;51.686;8.684;2022-07-29T17:49:39;5.28;;;2.20;;
29422;SDS011;16399;51.686;8.684;2022-07-29T17:52:42;6.47;;;2.47;;
29422;SDS011;16399;51.686;8.684;2022-07-29T17:55:44;10.80;;;2.50;;
29422;SDS011;16399;51.686;8.684;2022-07-29T17:58:48;5.80;;;2.33;;
29422;SDS011;16399;51.686;8.684;2022-07-29T18:01:50;8.05;;;2.58;;
29422;SDS011;16399;51.686;8.684;2022-07-29T18:04:52;12.58;;;2.65;;
29422;SDS011;16399;51.686;8.684;2022-07-29T18:07:55;7.95;;;2.17;;
29422;SDS011;16399;51.686;8.684;2022-07-29T18:10:58;9.20;;;2.37;;
29422;SDS011;16399;51.686;8.684;2022-07-29T18:14:00;6.03;;;2.37;;
29422;SDS011;16399;51.686;8.684;2022-07-29T18:17:03;9.15;;;2.40;;
29422;SDS011;16399;51.686;8.684;2022-07-29T18:20:05;5.35;;;2.12;;
29422;SDS011;16399;51.686;8.684;2022-07-29T18:23:08;5.08;;;2.30;;
29422;SDS011;16399;51.686;8.684;2022-07-29T18:26:11;12.10;;;2.62;;
29422;SDS011;16399;51.686;8.684;2022-07-29T18:29:13;10.15;;;2.15;;
29422;SDS011;16399;51.686;8.684;2022-07-29T18:32:15;12.95;;;2.87;;
29422;SDS011;16399;51.686;8.684;2022-07-29T18:35:18;11.48;;;2.00;;
29422;SDS011;16399;51.686;8.684;2022-07-29T18:38:20;6.17;;;2.12;;
29422;SDS011;16399;51.686;8.684;2022-07-29T18:41:22;6.58;;;2.10;;
29422;SDS011;16399;51.686;8.684;2022-07-29T18:44:25;8.10;;;2.27;;
29422;SDS011;16399;51.686;8.684;2022-07-29T18:47:27;7.45;;;2.30;;
29422;SDS011;16399;51.686;8.684;2022-07-29T18:50:29;9.15;;;2.50;;
29422;SDS011;16399;51.686;8.684;2022-07-29T18:53:31;9.60;;;2.80;;